Spring Garden, Missouri
Current Conditions -  °F | °C
As of 3:15 AM on Sunday 21 Dec 2014 (Local Time) from KAIZ Reporting Station
Overcast Overcast  
Wind Chill:   Ceiling: 2100
Heat Index:   Visibility: 10mi
Dew Point:   Wind: 7mph
Humidity: 70%   Direction: 180°S
Pressure: 30.14"   Gusts: NA
Location:  38.3538°N, 92.3679°W
Report Text: KAIZ 210915Z AUTO 18006KT 10SM OVC021 06/01 A3014 RMK AO1
Loading
Personal Weather Stations






























Interactive Weather Map New forecast layout! Learn more

10-Day Weather Forecast

Advertisements
Track Severe Weather on mobile